aviador You're here:

KBRY Decoded Metar

in
Report Time2018-01-21 17:55:00
UTC Time2018-01-21 18:39:19
Flight Rules mvfr MVFR
WindCalm
Visibility9999 m
Phenomena:N/A
Clouds:Overcast 017 Hf
Expected CloudBase > 400 ft AGL from Temp-Dew spread
Ceiling1,700 ft
Temp10°C
Dew Point09°C (94% RH)
AAT9.8°C
QNH1020 hPa
Raw Report
METAR KBRY 211755Z AUTO 00000KT 10SM OVC017 10/09 A3011 RMK AO1=

Extra information for KBRY:More info

Social comments